Buoy 46563

sailwx.info

Track history (hours):
 
Tides and Currents Weather Stations Pressure Air Temp Water Temp Dewpoint Dewpoint Depression Visibility Wind Speed Wind Dir Waves Ship Positions

Drifting buoy 46563

Last reported at 2015-May-22 17:00 UTC. Time now 2015-May-23 02:49 UTC.
Position N 22°18' W 134°14'.

Water temperature 21.8 ° C

Date/timePositionNaut miles runAvg speedWind from/ knotsBaromVisibWave heightAir tempDewpointWater temp
2015-May-22 17:00N 22°18' W 134°14'2 0.6 21.8
2015-May-22 14:00N 22°20' W 134°14'0 0.0 21.8
2015-May-22 13:00N 22°20' W 134°14'0 0.0 21.8
2015-May-22 10:00N 22°20' W 134°14'0 0.0 21.9
2015-May-22 09:00N 22°20' W 134°14'0 0.0 21.9
2015-May-22 05:00N 22°20' W 134°14'1 0.5 22.0
2015-May-22 03:00N 22°21' W 134°13'3 0.2 22.0
2015-May-21 14:00N 22°23' W 134°12'1 0.1 21.8
2015-May-21 06:00N 22°24' W 134°12'1 0.3 21.9
2015-May-21 02:00N 22°24' W 134°11'0 0.2 22.0
2015-May-20 23:00N 22°25' W 134°10'1 0.1 22.1
2015-May-20 12:00N 22°26' W 134°10'1 0.3 21.8
2015-May-20 10:00N 22°25' W 134°10'2 0.2 21.8
2015-May-20 02:00N 22°27' W 134°08'1 0.2 22.1
2015-May-19 22:00N 22°27' W 134°09'1 0.3 22.1
2015-May-19 18:00N 22°26' W 134°09'1 0.1 21.8
2015-May-19 03:00N 22°27' W 134°07'1 1.0 22.0
2015-May-19 02:00N 22°27' W 134°06'0 0.2 22.0
2015-May-19 01:00N 22°27' W 134°07'0 0.3 22.0
2015-May-19 00:00N 22°27' W 134°07'1 0.2 22.0
2015-May-18 20:00N 22°26' W 134°07'0 0.2 21.9
2015-May-18 18:00N 22°26' W 134°07'0 0.0 21.8
2015-May-18 17:00N 22°26' W 134°07'1 0.3 21.7
2015-May-18 14:00N 22°26' W 134°06'0 0.1 21.8
2015-May-18 13:00N 22°26' W 134°06'1 0.2 21.8
2015-May-18 07:00N 22°25' W 134°07'0 0.0 21.8
2015-May-18 06:00N 22°25' W 134°07'0 0.1 21.9
2015-May-18 02:00N 22°25' W 134°06'0 0.1 22.0
2015-May-18 01:00N 22°25' W 134°06'1 0.5 22.0
2015-May-18 00:00N 22°25' W 134°06'0 0.2 22.0
2015-May-17 22:00N 22°26' W 134°06'0 0.0 22.0
2015-May-17 21:00N 22°26' W 134°06'1 0.1 22.0
2015-May-17 17:00N 22°26' W 134°06'0 0.0 21.7
2015-May-17 04:00N 22°26' W 134°06'1 0.4 21.9
2015-May-17 01:00N 22°26' W 134°05'1 0.0 22.0
2015-May-16 05:00N 22°26' W 134°05'0 0.1 21.8
2015-May-16 02:00N 22°25' W 134°05'1 0.1 21.8
2015-May-15 10:00N 22°26' W 134°06'0 0.1 21.6
2015-May-15 06:00N 22°26' W 134°06'1 0.4 21.6
2015-May-15 04:00N 22°25' W 134°06'0 0.1 21.7
2015-May-15 01:00N 22°25' W 134°06'2 0.2 21.8
2015-May-14 18:00N 22°27' W 134°07'1 0.2 21.6
2015-May-14 13:00N 22°26' W 134°06'1 0.6 21.6
2015-May-14 11:00N 22°26' W 134°08'0 0.0 21.7
2015-May-14 07:00N 22°26' W 134°08'1 0.6 21.6
2015-May-14 05:00N 22°27' W 134°08'1 0.7 21.7
2015-May-14 04:00N 22°27' W 134°07'0 0.4 21.7
2015-May-14 03:00N 22°26' W 134°07'0 0.4 21.8
2015-May-14 02:00N 22°26' W 134°07'0 0.4 21.8
2015-May-14 01:00N 22°26' W 134°07'1 0.3 21.9
2015-May-13 23:00N 22°26' W 134°08'1 1.3 21.8
2015-May-13 22:00N 22°28' W 134°08'0 0.1 21.8
2015-May-13 19:00N 22°28' W 134°08'0 0.0 21.6
2015-May-13 18:00N 22°28' W 134°08'1 0.1 21.6
2015-May-13 14:00N 22°28' W 134°07'0 0.3 21.7
2015-May-13 13:00N 22°28' W 134°07'3 0.9 21.7
2015-May-13 10:00N 22°29' W 134°10'0 0.0 21.7
2015-May-13 06:00N 22°29' W 134°10'0 0.0 21.7
2015-May-13 05:00N 22°29' W 134°10'2 0.8 21.8
2015-May-13 03:00N 22°31' W 134°10'1 0.6 21.8
2015-May-13 02:00N 22°31' W 134°09'4 2.2 21.8
2015-May-13 00:00N 22°30' W 134°04'0 0.0 21.9
2015-May-12 22:00N 22°30' W 134°04'0 0.0 21.8
2015-May-12 21:00N 22°30' W 134°04'   21.8
Track history (hours):
 
Tides and Currents Weather Stations Pressure Air Temp Water Temp Dewpoint Dewpoint Depression Visibility Wind Speed Wind Dir Waves Ship Positions

Drifting buoy 46563

Last reported at 2015-May-22 17:00 UTC. Time now 2015-May-23 02:49 UTC.
Position N 22°18' W 134°14'.

Water temperature 21.8 ° C

Date/timePositionNaut miles runAvg speedWind from/ knotsBaromVisibWave heightAir tempDewpointWater temp
2015-May-22 17:00N 22°18' W 134°14'2 0.6 21.8
2015-May-22 14:00N 22°20' W 134°14'0 0.0 21.8
2015-May-22 13:00N 22°20' W 134°14'0 0.0 21.8
2015-May-22 10:00N 22°20' W 134°14'0 0.0 21.9
2015-May-22 09:00N 22°20' W 134°14'0 0.0 21.9
2015-May-22 05:00N 22°20' W 134°14'1 0.5 22.0
2015-May-22 03:00N 22°21' W 134°13'3 0.2 22.0
2015-May-21 14:00N 22°23' W 134°12'1 0.1 21.8
2015-May-21 06:00N 22°24' W 134°12'1 0.3 21.9
2015-May-21 02:00N 22°24' W 134°11'0 0.2 22.0
2015-May-20 23:00N 22°25' W 134°10'1 0.1 22.1
2015-May-20 12:00N 22°26' W 134°10'1 0.3 21.8
2015-May-20 10:00N 22°25' W 134°10'2 0.2 21.8
2015-May-20 02:00N 22°27' W 134°08'1 0.2 22.1
2015-May-19 22:00N 22°27' W 134°09'1 0.3 22.1
2015-May-19 18:00N 22°26' W 134°09'1 0.1 21.8
2015-May-19 03:00N 22°27' W 134°07'1 1.0 22.0
2015-May-19 02:00N 22°27' W 134°06'0 0.2 22.0
2015-May-19 01:00N 22°27' W 134°07'0 0.3 22.0
2015-May-19 00:00N 22°27' W 134°07'1 0.2 22.0
2015-May-18 20:00N 22°26' W 134°07'0 0.2 21.9
2015-May-18 18:00N 22°26' W 134°07'0 0.0 21.8
2015-May-18 17:00N 22°26' W 134°07'1 0.3 21.7
2015-May-18 14:00N 22°26' W 134°06'0 0.1 21.8
2015-May-18 13:00N 22°26' W 134°06'1 0.2 21.8
2015-May-18 07:00N 22°25' W 134°07'0 0.0 21.8
2015-May-18 06:00N 22°25' W 134°07'0 0.1 21.9
2015-May-18 02:00N 22°25' W 134°06'0 0.1 22.0
2015-May-18 01:00N 22°25' W 134°06'1 0.5 22.0
2015-May-18 00:00N 22°25' W 134°06'0 0.2 22.0
2015-May-17 22:00N 22°26' W 134°06'0 0.0 22.0
2015-May-17 21:00N 22°26' W 134°06'1 0.1 22.0
2015-May-17 17:00N 22°26' W 134°06'0 0.0 21.7
2015-May-17 04:00N 22°26' W 134°06'1 0.4 21.9
2015-May-17 01:00N 22°26' W 134°05'1 0.0 22.0
2015-May-16 05:00N 22°26' W 134°05'0 0.1 21.8
2015-May-16 02:00N 22°25' W 134°05'1 0.1 21.8
2015-May-15 10:00N 22°26' W 134°06'0 0.1 21.6
2015-May-15 06:00N 22°26' W 134°06'1 0.4 21.6
2015-May-15 04:00N 22°25' W 134°06'0 0.1 21.7
2015-May-15 01:00N 22°25' W 134°06'2 0.2 21.8
2015-May-14 18:00N 22°27' W 134°07'1 0.2 21.6
2015-May-14 13:00N 22°26' W 134°06'1 0.6 21.6
2015-May-14 11:00N 22°26' W 134°08'0 0.0 21.7
2015-May-14 07:00N 22°26' W 134°08'1 0.6 21.6
2015-May-14 05:00N 22°27' W 134°08'1 0.7 21.7
2015-May-14 04:00N 22°27' W 134°07'0 0.4 21.7
2015-May-14 03:00N 22°26' W 134°07'0 0.4 21.8
2015-May-14 02:00N 22°26' W 134°07'0 0.4 21.8
2015-May-14 01:00N 22°26' W 134°07'1 0.3 21.9
2015-May-13 23:00N 22°26' W 134°08'1 1.3 21.8
2015-May-13 22:00N 22°28' W 134°08'0 0.1 21.8
2015-May-13 19:00N 22°28' W 134°08'0 0.0 21.6
2015-May-13 18:00N 22°28' W 134°08'1 0.1 21.6
2015-May-13 14:00N 22°28' W 134°07'0 0.3 21.7
2015-May-13 13:00N 22°28' W 134°07'3 0.9 21.7
2015-May-13 10:00N 22°29' W 134°10'0 0.0 21.7
2015-May-13 06:00N 22°29' W 134°10'0 0.0 21.7
2015-May-13 05:00N 22°29' W 134°10'2 0.8 21.8
2015-May-13 03:00N 22°31' W 134°10'1 0.6 21.8
2015-May-13 02:00N 22°31' W 134°09'4 2.2 21.8
2015-May-13 00:00N 22°30' W 134°04'0 0.0 21.9
2015-May-12 22:00N 22°30' W 134°04'0 0.0 21.8
2015-May-12 21:00N 22°30' W 134°04'   21.8

Dump ship's entire track history